createdAt,value
2018-05-10T00:00:00.029Z,994.42
2018-05-10T00:01:00.047Z,994.43
2018-05-10T00:02:00.073Z,994.43
2018-05-10T00:03:00.100Z,994.45
2018-05-10T00:04:00.117Z,994.41
2018-05-10T00:05:00.162Z,994.4
2018-05-10T00:06:00.177Z,994.43
2018-05-10T00:07:00.229Z,994.44
2018-05-10T00:08:00.220Z,994.39
2018-05-10T00:09:00.242Z,994.39
2018-05-10T00:10:00.271Z,994.35
2018-05-10T00:11:00.288Z,994.36
2018-05-10T00:12:00.312Z,994.31
2018-05-10T00:13:00.331Z,994.3
2018-05-10T00:14:00.369Z,994.3
2018-05-10T00:15:00.383Z,994.33
2018-05-10T00:16:00.402Z,994.27
2018-05-10T00:17:00.435Z,994.29
2018-05-10T00:18:00.450Z,994.25
2018-05-10T00:19:00.478Z,994.26
2018-05-10T00:20:00.503Z,994.24
2018-05-10T00:21:00.523Z,994.21
2018-05-10T00:22:00.550Z,994.18
2018-05-10T00:23:00.571Z,994.19
2018-05-10T00:24:00.590Z,994.21
2018-05-10T00:25:00.618Z,994.23
2018-05-10T00:26:00.637Z,994.19
2018-05-10T00:27:00.662Z,994.18
2018-05-10T00:28:00.695Z,994.24
2018-05-10T00:29:00.707Z,994.24
2018-05-10T00:30:00.732Z,994.21
2018-05-10T00:31:00.759Z,994.22
2018-05-10T00:32:00.782Z,994.21
2018-05-10T00:33:00.800Z,994.19
2018-05-10T00:34:00.827Z,994.22
2018-05-10T00:35:00.853Z,994.19
2018-05-10T00:36:00.876Z,994.2
2018-05-10T00:37:00.899Z,994.22
2018-05-10T00:38:00.933Z,994.2
2018-05-10T00:39:00.948Z,994.18
2018-05-10T00:40:00.966Z,994.14
2018-05-10T00:41:00.993Z,994.16
2018-05-10T00:42:01.019Z,994.16
2018-05-10T00:43:01.039Z,994.15
2018-05-10T00:44:01.102Z,994.15
2018-05-10T00:45:01.080Z,994.17
2018-05-10T00:46:01.109Z,994.16
2018-05-10T00:47:01.134Z,994.19
2018-05-10T00:48:01.153Z,994.14
2018-05-10T00:49:01.180Z,994.1
2018-05-10T00:50:01.211Z,994.12
2018-05-10T00:51:01.227Z,994.07
2018-05-10T00:52:01.245Z,994.09
2018-05-10T00:53:01.268Z,994.09
2018-05-10T00:54:01.296Z,994.13
2018-05-10T00:55:01.315Z,994.09
2018-05-10T00:56:01.343Z,994.14
2018-05-10T00:57:01.368Z,994.17
2018-05-10T00:58:01.390Z,994.18
2018-05-10T00:59:01.411Z,994.22
2018-05-10T01:00:01.429Z,994.24
2018-05-10T01:01:01.458Z,994.21
2018-05-10T01:02:01.481Z,994.25
2018-05-10T01:03:01.670Z,994.27
2018-05-10T01:04:01.524Z,994.24
2018-05-10T01:05:01.574Z,994.26
2018-05-10T01:06:01.569Z,994.28
2018-05-10T01:07:01.591Z,994.29
2018-05-10T01:08:01.620Z,994.31
2018-05-10T01:09:01.645Z,994.3
2018-05-10T01:10:01.667Z,994.32
2018-05-10T01:11:01.689Z,994.32
2018-05-10T01:12:01.713Z,994.29
2018-05-10T01:13:01.736Z,994.29
2018-05-10T01:14:01.755Z,994.29
2018-05-10T01:15:01.785Z,994.31
2018-05-10T01:16:01.803Z,994.26
2018-05-10T01:17:01.822Z,994.26
2018-05-10T01:18:01.851Z,994.25
2018-05-10T01:19:01.875Z,994.27
2018-05-10T01:20:01.918Z,994.23
2018-05-10T01:21:01.915Z,994.22
2018-05-10T01:22:01.991Z,994.26
2018-05-10T01:23:01.969Z,994.24
2018-05-10T01:24:01.988Z,994.21
2018-05-10T01:25:02.006Z,994.19
2018-05-10T01:26:02.034Z,994.24
2018-05-10T01:27:02.055Z,994.21
2018-05-10T01:28:02.080Z,994.23
2018-05-10T01:29:02.100Z,994.21
2018-05-10T01:30:02.122Z,994.21
2018-05-10T01:31:02.147Z,994.2
2018-05-10T01:32:02.218Z,994.17
2018-05-10T01:33:02.194Z,994.24
2018-05-10T01:34:02.218Z,994.23
2018-05-10T01:35:02.241Z,994.22
2018-05-10T01:36:02.259Z,994.27
2018-05-10T01:37:02.332Z,994.31
2018-05-10T01:38:02.310Z,994.31
2018-05-10T01:39:02.332Z,994.31
2018-05-10T01:40:02.359Z,994.31
2018-05-10T01:41:02.380Z,994.28
2018-05-10T01:42:02.396Z,994.28
2018-05-10T01:43:02.421Z,994.28
2018-05-10T01:44:02.446Z,994.32
2018-05-10T01:45:02.471Z,994.32
2018-05-10T01:46:02.491Z,994.33
2018-05-10T01:47:02.510Z,994.34
2018-05-10T01:48:02.537Z,994.3
2018-05-10T01:49:02.555Z,994.31
2018-05-10T01:50:02.577Z,994.31
2018-05-10T01:51:02.606Z,994.34
2018-05-10T01:52:02.685Z,994.37
2018-05-10T01:53:02.652Z,994.37
2018-05-10T01:54:02.668Z,994.29
2018-05-10T01:55:02.691Z,994.33
2018-05-10T01:56:02.715Z,994.29
2018-05-10T01:57:02.736Z,994.31
2018-05-10T01:58:02.768Z,994.3
2018-05-10T01:59:02.788Z,994.33
2018-05-10T02:00:02.809Z,994.31
2018-05-10T02:01:02.834Z,994.32
2018-05-10T02:02:02.850Z,994.35
2018-05-10T02:03:02.878Z,994.33
2018-05-10T02:04:02.899Z,994.34
2018-05-10T02:05:02.922Z,994.35
2018-05-10T02:06:02.946Z,994.37
2018-05-10T02:07:02.969Z,994.34
2018-05-10T02:08:02.987Z,994.35
2018-05-10T02:09:03.013Z,994.34
2018-05-10T02:10:03.031Z,994.34
2018-05-10T02:11:03.054Z,994.35
2018-05-10T02:12:03.077Z,994.3
2018-05-10T02:13:03.099Z,994.3
2018-05-10T02:14:03.122Z,994.27
2018-05-10T02:15:03.143Z,994.3
2018-05-10T02:16:03.170Z,994.27
2018-05-10T02:17:03.188Z,994.27
2018-05-10T02:18:03.210Z,994.28
2018-05-10T02:19:03.233Z,994.28
2018-05-10T02:20:03.255Z,994.32
2018-05-10T02:21:03.278Z,994.35
2018-05-10T02:22:03.301Z,994.35
2018-05-10T02:23:03.324Z,994.33
2018-05-10T02:24:03.349Z,994.33
2018-05-10T02:25:03.367Z,994.38
2018-05-10T02:26:03.396Z,994.33
2018-05-10T02:27:03.418Z,994.33
2018-05-10T02:28:03.435Z,994.38
2018-05-10T02:29:03.462Z,994.32
2018-05-10T02:30:03.484Z,994.29
2018-05-10T02:31:03.507Z,994.33
2018-05-10T02:32:03.531Z,994.34
2018-05-10T02:33:03.548Z,994.34
2018-05-10T02:34:03.570Z,994.29
2018-05-10T02:35:03.596Z,994.36
2018-05-10T02:36:03.614Z,994.31
2018-05-10T02:37:03.636Z,994.31
2018-05-10T02:38:03.663Z,994.33
2018-05-10T02:39:03.687Z,994.31
2018-05-10T02:40:03.709Z,994.28
2018-05-10T02:41:03.729Z,994.3
2018-05-10T02:42:03.752Z,994.3
2018-05-10T02:43:03.776Z,994.33
2018-05-10T02:44:03.793Z,994.33
2018-05-10T02:45:03.881Z,994.31
2018-05-10T02:46:03.842Z,994.33
2018-05-10T02:47:03.859Z,994.32
2018-05-10T02:48:03.887Z,994.31
2018-05-10T02:49:03.918Z,994.31
2018-05-10T02:50:03.930Z,994.32
2018-05-10T02:51:03.953Z,994.29
2018-05-10T02:52:03.981Z,994.3
2018-05-10T02:53:03.993Z,994.31
2018-05-10T02:54:04.016Z,994.3
2018-05-10T02:55:04.036Z,994.27
2018-05-10T02:56:04.067Z,994.26
2018-05-10T02:57:04.084Z,994.29
2018-05-10T02:58:04.105Z,994.28
2018-05-10T02:59:04.126Z,994.27
2018-05-10T03:00:04.153Z,994.32
2018-05-10T03:01:04.175Z,994.32
2018-05-10T03:02:04.197Z,994.37
2018-05-10T03:03:04.218Z,994.35
2018-05-10T03:04:04.237Z,994.32
2018-05-10T03:05:04.265Z,994.37
2018-05-10T03:06:04.286Z,994.38
2018-05-10T03:07:04.303Z,994.41
2018-05-10T03:08:04.333Z,994.39
2018-05-10T03:09:04.347Z,994.42
2018-05-10T03:10:04.369Z,994.38
2018-05-10T03:11:04.398Z,994.39
2018-05-10T03:12:04.413Z,994.42
2018-05-10T03:13:04.441Z,994.41
2018-05-10T03:14:04.462Z,994.41
2018-05-10T03:15:04.524Z,994.38
2018-05-10T03:16:04.507Z,994.4
2018-05-10T03:17:04.529Z,994.4
2018-05-10T03:18:04.549Z,994.42
2018-05-10T03:19:04.568Z,994.41
2018-05-10T03:20:04.590Z,994.43
2018-05-10T03:21:04.616Z,994.43
2018-05-10T03:22:04.641Z,994.42
2018-05-10T03:23:04.654Z,994.39
2018-05-10T03:24:04.676Z,994.37
2018-05-10T03:25:04.706Z,994.38
2018-05-10T03:26:04.722Z,994.35
2018-05-10T03:27:04.748Z,994.35
2018-05-10T03:28:04.770Z,994.35
2018-05-10T03:29:04.793Z,994.34
2018-05-10T03:30:04.808Z,994.35
2018-05-10T03:31:04.831Z,994.33
2018-05-10T03:32:04.852Z,994.36
2018-05-10T03:33:04.929Z,994.37
2018-05-10T03:34:04.896Z,994.41
2018-05-10T03:35:04.924Z,994.38
2018-05-10T03:36:04.940Z,994.41
2018-05-10T03:37:04.968Z,994.38
2018-05-10T03:38:04.983Z,994.4
2018-05-10T03:39:05.006Z,994.4
2018-05-10T03:40:05.031Z,994.42
2018-05-10T03:41:05.056Z,994.4
2018-05-10T03:42:05.082Z,994.45
2018-05-10T03:43:05.098Z,994.45
2018-05-10T03:44:05.124Z,994.44
2018-05-10T03:45:05.140Z,994.43
2018-05-10T03:46:05.162Z,994.44
2018-05-10T03:47:05.188Z,994.42
2018-05-10T03:48:05.205Z,994.41
2018-05-10T03:49:05.228Z,994.42
2018-05-10T03:50:05.245Z,994.37
2018-05-10T03:51:05.271Z,994.4
2018-05-10T03:52:05.292Z,994.41
2018-05-10T03:53:05.314Z,994.42
2018-05-10T03:54:05.330Z,994.44
2018-05-10T03:55:05.359Z,994.47
2018-05-10T03:56:05.380Z,994.44
2018-05-10T03:57:05.402Z,994.46
2018-05-10T03:58:05.423Z,994.45
2018-05-10T03:59:05.441Z,994.45
2018-05-10T04:00:05.468Z,994.45
2018-05-10T04:01:05.488Z,994.47
2018-05-10T04:02:05.504Z,994.47
2018-05-10T04:03:05.534Z,994.48
2018-05-10T04:04:05.550Z,994.5
2018-05-10T04:05:05.569Z,994.47
2018-05-10T04:06:05.634Z,994.49
2018-05-10T04:07:05.613Z,994.5
2018-05-10T04:08:05.639Z,994.48
2018-05-10T04:09:05.661Z,994.44
2018-05-10T04:10:05.679Z,994.4
2018-05-10T04:11:05.704Z,994.39
2018-05-10T04:12:05.722Z,994.35
2018-05-10T04:13:05.742Z,994.38
2018-05-10T04:14:05.768Z,994.36
2018-05-10T04:15:05.786Z,994.37
2018-05-10T04:16:05.812Z,994.38
2018-05-10T04:17:05.829Z,994.36
2018-05-10T04:18:05.855Z,994.4
2018-05-10T04:19:05.877Z,994.4
2018-05-10T04:20:05.893Z,994.44
2018-05-10T04:21:05.915Z,994.43
2018-05-10T04:22:05.936Z,994.46
2018-05-10T04:23:05.959Z,994.47
2018-05-10T04:24:05.984Z,994.49
2018-05-10T04:25:06.000Z,994.45
2018-05-10T04:26:06.025Z,994.42
2018-05-10T04:27:06.057Z,994.45
2018-05-10T04:28:06.066Z,994.43
2018-05-10T04:29:06.087Z,994.4
2018-05-10T04:30:06.108Z,994.37
2018-05-10T04:31:06.128Z,994.41
2018-05-10T04:32:06.154Z,994.43
2018-05-10T04:33:06.173Z,994.45
2018-05-10T04:34:06.201Z,994.45
2018-05-10T04:35:06.217Z,994.5
2018-05-10T04:36:06.238Z,994.56
2018-05-10T04:37:06.258Z,994.55
2018-05-10T04:38:06.285Z,994.62
2018-05-10T04:39:06.303Z,994.61
2018-05-10T04:40:06.329Z,994.61
2018-05-10T04:41:06.345Z,994.61
2018-05-10T04:42:06.368Z,994.65
2018-05-10T04:43:06.391Z,994.62
2018-05-10T04:44:06.414Z,994.61
2018-05-10T04:45:06.496Z,994.62
2018-05-10T04:46:06.460Z,994.62
2018-05-10T04:47:06.479Z,994.62
2018-05-10T04:48:06.501Z,994.62
2018-05-10T04:49:06.516Z,994.59
2018-05-10T04:50:06.543Z,994.64
2018-05-10T04:51:06.565Z,994.64
2018-05-10T04:52:06.589Z,994.64
2018-05-10T04:53:06.607Z,994.66
2018-05-10T04:54:06.631Z,994.67
2018-05-10T04:55:06.651Z,994.64
2018-05-10T04:56:06.670Z,994.59
2018-05-10T04:57:06.689Z,994.64
2018-05-10T04:58:06.709Z,994.63
2018-05-10T04:59:06.731Z,994.62
2018-05-10T05:00:06.758Z,994.64
2018-05-10T05:01:06.773Z,994.68
2018-05-10T05:02:06.799Z,994.64
2018-05-10T05:03:06.822Z,994.69
2018-05-10T05:04:06.836Z,994.67
2018-05-10T05:05:06.859Z,994.67
2018-05-10T05:06:06.885Z,994.7
2018-05-10T05:07:06.902Z,994.69
2018-05-10T05:08:06.927Z,994.73
2018-05-10T05:09:07.001Z,994.7
2018-05-10T05:10:06.965Z,994.73
2018-05-10T05:11:06.989Z,994.68
2018-05-10T05:12:07.009Z,994.68
2018-05-10T05:13:07.035Z,994.72
2018-05-10T05:14:07.065Z,994.72
2018-05-10T05:15:07.078Z,994.77
2018-05-10T05:16:07.095Z,994.75
2018-05-10T05:17:07.118Z,994.73
2018-05-10T05:18:07.141Z,994.79
2018-05-10T05:19:07.158Z,994.81
2018-05-10T05:20:07.187Z,994.8
2018-05-10T05:21:07.201Z,994.83
2018-05-10T05:22:07.221Z,994.75
2018-05-10T05:23:07.242Z,994.76
2018-05-10T05:24:07.267Z,994.76
2018-05-10T05:25:07.286Z,994.77
2018-05-10T05:26:07.312Z,994.76
2018-05-10T05:27:07.332Z,994.7
2018-05-10T05:28:07.351Z,994.79
2018-05-10T05:29:07.375Z,994.83
2018-05-10T05:30:07.401Z,994.82
2018-05-10T05:31:07.421Z,994.78
2018-05-10T05:32:07.440Z,994.83
2018-05-10T05:33:07.459Z,994.79
2018-05-10T05:34:07.481Z,994.79
2018-05-10T05:35:07.501Z,994.85
2018-05-10T05:36:07.526Z,994.81
2018-05-10T05:37:07.543Z,994.83
2018-05-10T05:38:07.568Z,994.79
2018-05-10T05:39:07.589Z,994.78
2018-05-10T05:40:07.621Z,994.79
2018-05-10T05:41:07.666Z,994.78
2018-05-10T05:42:07.652Z,994.76
2018-05-10T05:43:07.679Z,994.74
2018-05-10T05:44:07.689Z,994.75
2018-05-10T05:45:07.717Z,994.75
2018-05-10T05:46:07.739Z,994.76
2018-05-10T05:47:07.760Z,994.8
2018-05-10T05:48:07.776Z,994.82
2018-05-10T05:49:07.799Z,994.83
2018-05-10T05:50:07.823Z,994.78
2018-05-10T05:51:07.858Z,994.79
2018-05-10T05:52:07.861Z,994.81
2018-05-10T05:53:07.886Z,994.8
2018-05-10T05:54:07.922Z,994.84
2018-05-10T05:55:07.981Z,994.81
2018-05-10T05:56:07.948Z,994.83
2018-05-10T05:57:07.976Z,994.84
2018-05-10T05:58:07.995Z,994.85
2018-05-10T05:59:08.010Z,994.82
2018-05-10T06:00:08.036Z,994.89
2018-05-10T06:01:08.054Z,994.84
2018-05-10T06:02:08.079Z,994.82
2018-05-10T06:03:08.105Z,994.8
2018-05-10T06:04:08.118Z,994.81
2018-05-10T06:05:08.144Z,994.85
2018-05-10T06:06:08.159Z,994.83
2018-05-10T06:07:08.188Z,994.81
2018-05-10T06:08:08.205Z,994.84
2018-05-10T06:09:08.225Z,994.85
2018-05-10T06:10:08.250Z,994.91
2018-05-10T06:11:08.272Z,994.88
2018-05-10T06:12:08.294Z,994.91
2018-05-10T06:13:08.317Z,994.87
2018-05-10T06:14:08.337Z,994.85
2018-05-10T06:15:08.354Z,994.9
2018-05-10T06:16:08.380Z,994.9
2018-05-10T06:17:08.404Z,994.91
2018-05-10T06:18:08.422Z,994.92
2018-05-10T06:19:08.445Z,994.91
2018-05-10T06:20:08.467Z,994.94
2018-05-10T06:21:08.490Z,994.96
2018-05-10T06:22:08.510Z,994.96
2018-05-10T06:23:08.530Z,994.97
2018-05-10T06:24:08.547Z,994.97
2018-05-10T06:25:08.713Z,995
2018-05-10T06:26:08.597Z,995.02
2018-05-10T06:27:08.618Z,995.01
2018-05-10T06:28:08.638Z,995.02
2018-05-10T06:29:08.661Z,995.03
2018-05-10T06:30:08.684Z,995.01
2018-05-10T06:31:08.706Z,994.95
2018-05-10T06:32:08.724Z,995.01
2018-05-10T06:33:08.747Z,994.99
2018-05-10T06:34:08.770Z,994.97
2018-05-10T06:35:08.790Z,994.95
2018-05-10T06:36:08.813Z,994.99
2018-05-10T06:37:08.833Z,995
2018-05-10T06:38:08.856Z,994.96
2018-05-10T06:39:08.871Z,995
2018-05-10T06:40:08.904Z,995
2018-05-10T06:41:08.916Z,995
2018-05-10T06:42:08.936Z,994.97
2018-05-10T06:43:08.962Z,994.97
2018-05-10T06:44:08.984Z,994.96
2018-05-10T06:45:09.007Z,994.96
2018-05-10T06:46:09.031Z,994.97
2018-05-10T06:47:09.049Z,994.97
2018-05-10T06:48:09.071Z,994.99
2018-05-10T06:49:09.093Z,995.02
2018-05-10T06:50:09.118Z,994.99
2018-05-10T06:51:09.138Z,995.01
2018-05-10T06:52:09.158Z,994.99
2018-05-10T06:53:09.175Z,995.03
2018-05-10T06:54:09.201Z,995.01
2018-05-10T06:55:09.272Z,995
2018-05-10T06:56:09.246Z,995.01
2018-05-10T06:57:09.267Z,995.02
2018-05-10T06:58:09.285Z,995.06
2018-05-10T06:59:09.306Z,995.05
2018-05-10T07:00:09.418Z,995.1
2018-05-10T07:01:09.355Z,995.08
2018-05-10T07:02:09.377Z,995.09
2018-05-10T07:03:09.404Z,995.15
2018-05-10T07:04:09.416Z,995.11
2018-05-10T07:05:09.487Z,995.11
2018-05-10T07:06:09.464Z,995.12
2018-05-10T07:07:09.486Z,995.1
2018-05-10T07:08:09.510Z,995.12
2018-05-10T07:09:09.530Z,995.11
2018-05-10T07:10:09.601Z,995.14
2018-05-10T07:11:09.569Z,995.12
2018-05-10T07:12:09.592Z,995.14
2018-05-10T07:13:09.613Z,995.14
2018-05-10T07:14:09.642Z,995.14
2018-05-10T07:15:09.657Z,995.12
2018-05-10T07:16:09.684Z,995.11
2018-05-10T07:17:09.702Z,995.1
2018-05-10T07:18:09.728Z,995.07
2018-05-10T07:19:09.817Z,995.05
2018-05-10T07:20:09.772Z,995.07
2018-05-10T07:21:09.796Z,995.05
2018-05-10T07:22:09.819Z,995.02
2018-05-10T07:23:09.838Z,995.03
2018-05-10T07:24:09.862Z,995.05
2018-05-10T07:25:09.927Z,995.08
2018-05-10T07:26:09.907Z,995.04
2018-05-10T07:27:09.930Z,995.04
2018-05-10T07:28:09.947Z,995.04
2018-05-10T07:29:09.973Z,995.06
2018-05-10T07:30:10.001Z,995.03
2018-05-10T07:31:10.014Z,995.07
2018-05-10T07:32:10.041Z,995.07
2018-05-10T07:33:10.060Z,995.06
2018-05-10T07:34:10.080Z,995.07
2018-05-10T07:35:10.108Z,995.06
2018-05-10T07:36:10.131Z,995
2018-05-10T07:37:10.148Z,995.03
2018-05-10T07:38:10.177Z,994.99
2018-05-10T07:39:10.194Z,995.04
2018-05-10T07:40:10.222Z,995.06
2018-05-10T07:41:10.239Z,995.05
2018-05-10T07:42:10.297Z,995.06
2018-05-10T07:43:10.287Z,995.04
2018-05-10T07:44:10.312Z,995.06
2018-05-10T07:45:10.335Z,995.07
2018-05-10T07:46:10.354Z,995.07
2018-05-10T07:47:10.403Z,995.1
2018-05-10T07:48:10.400Z,995.07
2018-05-10T07:49:10.424Z,995.09
2018-05-10T07:50:10.453Z,995.1
2018-05-10T07:51:10.485Z,995.17
2018-05-10T07:52:10.492Z,995.12
2018-05-10T07:53:10.551Z,995.1
2018-05-10T07:54:10.542Z,995.15
2018-05-10T07:55:10.561Z,995.15
2018-05-10T07:56:10.591Z,995.17
2018-05-10T07:57:10.608Z,995.19
2018-05-10T07:58:10.631Z,995.21
2018-05-10T07:59:10.666Z,995.21
2018-05-10T08:00:10.680Z,995.23
2018-05-10T08:01:10.701Z,995.23
2018-05-10T08:02:10.727Z,995.23
2018-05-10T08:03:10.747Z,995.22
2018-05-10T08:04:10.775Z,995.22
2018-05-10T08:05:10.799Z,995.21
2018-05-10T08:06:10.818Z,995.2
2018-05-10T08:07:10.840Z,995.19
2018-05-10T08:08:10.869Z,995.24
2018-05-10T08:09:10.894Z,995.26
2018-05-10T08:10:10.980Z,995.23
2018-05-10T08:11:10.940Z,995.28
2018-05-10T08:12:10.959Z,995.27
2018-05-10T08:13:10.984Z,995.23
2018-05-10T08:14:11.007Z,995.25
2018-05-10T08:15:11.036Z,995.24
2018-05-10T08:16:11.056Z,995.25
2018-05-10T08:17:11.143Z,995.26
2018-05-10T08:18:11.106Z,995.26
2018-05-10T08:19:11.131Z,995.29
2018-05-10T08:20:11.155Z,995.32
2018-05-10T08:21:11.180Z,995.32
2018-05-10T08:22:11.197Z,995.32
2018-05-10T08:23:11.228Z,995.3
2018-05-10T08:24:11.331Z,995.31
2018-05-10T08:25:11.274Z,995.31
2018-05-10T08:26:11.299Z,995.32
2018-05-10T08:27:11.326Z,995.29
2018-05-10T08:28:11.348Z,995.32
2018-05-10T08:29:11.372Z,995.3
2018-05-10T08:30:11.463Z,995.32
2018-05-10T08:31:11.466Z,995.33
2018-05-10T08:32:11.440Z,995.3
2018-05-10T08:33:11.463Z,995.31
2018-05-10T08:34:11.489Z,995.29
2018-05-10T08:35:11.518Z,995.35
2018-05-10T08:36:11.537Z,995.36
2018-05-10T08:37:11.565Z,995.3
2018-05-10T08:38:11.591Z,995.32
2018-05-10T08:39:11.616Z,995.36
2018-05-10T08:40:11.639Z,995.36
2018-05-10T08:41:11.715Z,995.32
2018-05-10T08:42:11.690Z,995.37
2018-05-10T08:43:11.710Z,995.32
2018-05-10T08:44:11.738Z,995.37
2018-05-10T08:45:11.766Z,995.34
2018-05-10T08:46:11.789Z,995.38
2018-05-10T08:47:11.813Z,995.38
2018-05-10T08:48:11.838Z,995.43
2018-05-10T08:49:11.864Z,995.45
2018-05-10T08:50:11.884Z,995.46
2018-05-10T08:51:11.913Z,995.47
2018-05-10T08:52:11.938Z,995.44
2018-05-10T08:53:11.963Z,995.44
2018-05-10T08:54:11.988Z,995.45
2018-05-10T08:55:12.009Z,995.47
2018-05-10T08:56:12.043Z,995.43
2018-05-10T08:57:12.064Z,995.44
2018-05-10T08:58:12.086Z,995.44
2018-05-10T08:59:12.113Z,995.39
2018-05-10T09:00:12.140Z,995.42
2018-05-10T09:01:12.166Z,995.4
2018-05-10T09:02:12.196Z,995.35
2018-05-10T09:03:12.217Z,995.42
2018-05-10T09:04:12.245Z,995.39
2018-05-10T09:05:12.263Z,995.43
2018-05-10T09:06:12.289Z,995.44
2018-05-10T09:07:12.319Z,995.41
2018-05-10T09:08:12.341Z,995.44
2018-05-10T09:09:12.371Z,995.39
2018-05-10T09:10:12.397Z,995.44
2018-05-10T09:11:12.419Z,995.41
2018-05-10T09:12:12.450Z,995.4
2018-05-10T09:13:12.469Z,995.45
2018-05-10T09:14:12.496Z,995.42
2018-05-10T09:15:12.523Z,995.47
2018-05-10T09:16:12.547Z,995.45
2018-05-10T09:17:12.574Z,995.44
2018-05-10T09:18:12.604Z,995.49
2018-05-10T09:19:12.627Z,995.48
2018-05-10T09:20:12.743Z,995.5
2018-05-10T09:21:12.679Z,995.49
2018-05-10T09:22:12.706Z,995.52
2018-05-10T09:23:12.735Z,995.5
2018-05-10T09:24:12.760Z,995.52
2018-05-10T09:25:12.795Z,995.55
2018-05-10T09:26:12.811Z,995.53
2018-05-10T09:27:12.840Z,995.58
2018-05-10T09:28:12.867Z,995.55
2018-05-10T09:29:12.899Z,995.62
2018-05-10T09:30:12.922Z,995.56
2018-05-10T09:31:12.944Z,995.63
2018-05-10T09:32:12.974Z,995.58
2018-05-10T09:33:13.000Z,995.61
2018-05-10T09:34:13.022Z,995.6
2018-05-10T09:35:13.050Z,995.62
2018-05-10T09:36:13.077Z,995.62
2018-05-10T09:37:13.103Z,995.6
2018-05-10T09:38:13.134Z,995.63
2018-05-10T09:39:13.224Z,995.62
2018-05-10T09:40:13.183Z,995.64
2018-05-10T09:41:13.220Z,995.67
2018-05-10T09:42:13.237Z,995.7
2018-05-10T09:43:13.269Z,995.64
2018-05-10T09:44:13.292Z,995.64
2018-05-10T09:45:13.319Z,995.66
2018-05-10T09:46:13.386Z,995.67
2018-05-10T09:47:13.373Z,995.69
2018-05-10T09:48:13.402Z,995.73
2018-05-10T09:49:13.432Z,995.73
2018-05-10T09:50:13.455Z,995.71
2018-05-10T09:51:13.482Z,995.74
2018-05-10T09:52:13.514Z,995.79
2018-05-10T09:53:13.538Z,995.78
2018-05-10T09:54:13.565Z,995.8
2018-05-10T09:55:13.597Z,995.8
2018-05-10T09:56:13.624Z,995.85
2018-05-10T09:57:13.646Z,995.83
2018-05-10T09:58:13.673Z,995.8
2018-05-10T09:59:13.701Z,995.83
2018-05-10T10:00:13.734Z,995.87
2018-05-10T10:01:13.757Z,995.85
2018-05-10T10:02:13.839Z,995.88
2018-05-10T10:03:13.816Z,995.85
2018-05-10T10:04:13.845Z,995.85
2018-05-10T10:05:13.869Z,995.84
2018-05-10T10:06:13.972Z,995.84
2018-05-10T10:07:13.928Z,995.83
2018-05-10T10:08:13.952Z,995.87
2018-05-10T10:09:13.980Z,995.82
2018-05-10T10:10:14.008Z,995.83
2018-05-10T10:11:14.041Z,995.79
2018-05-10T10:12:14.119Z,995.8
2018-05-10T10:13:14.095Z,995.84
2018-05-10T10:14:14.119Z,995.84
2018-05-10T10:15:14.150Z,995.87
2018-05-10T10:16:14.183Z,995.85
2018-05-10T10:17:14.211Z,995.86
2018-05-10T10:18:14.239Z,995.86
2018-05-10T10:19:14.264Z,995.87
2018-05-10T10:20:14.295Z,995.89
2018-05-10T10:21:14.321Z,995.84
2018-05-10T10:22:14.348Z,995.87
2018-05-10T10:23:14.377Z,995.84
2018-05-10T10:24:14.404Z,995.88
2018-05-10T10:25:14.468Z,995.86
2018-05-10T10:26:14.463Z,995.9
2018-05-10T10:27:14.491Z,995.89
2018-05-10T10:28:14.520Z,995.88
2018-05-10T10:29:14.549Z,995.94
2018-05-10T10:30:14.577Z,995.89
2018-05-10T10:31:14.615Z,995.9
2018-05-10T10:32:14.705Z,995.93
2018-05-10T10:33:14.668Z,995.94
2018-05-10T10:34:14.693Z,995.91
2018-05-10T10:35:14.722Z,995.92
2018-05-10T10:36:14.750Z,995.92
2018-05-10T10:37:14.831Z,995.87
2018-05-10T10:38:14.856Z,995.88
2018-05-10T10:39:14.844Z,995.87
2018-05-10T10:40:14.923Z,995.85
2018-05-10T10:41:14.896Z,995.86
2018-05-10T10:42:14.926Z,995.84
2018-05-10T10:43:14.964Z,995.84
2018-05-10T10:44:14.988Z,995.86
2018-05-10T10:45:15.013Z,995.85
2018-05-10T10:46:15.048Z,995.86
2018-05-10T10:47:15.077Z,995.86
2018-05-10T10:48:15.102Z,995.84
2018-05-10T10:49:15.131Z,995.85
2018-05-10T10:50:15.166Z,995.89
2018-05-10T10:51:15.194Z,995.88
2018-05-10T10:52:15.228Z,995.92
2018-05-10T10:53:15.248Z,995.89
2018-05-10T10:54:15.320Z,995.93
2018-05-10T10:55:15.307Z,995.92
2018-05-10T10:56:15.348Z,995.87
2018-05-10T10:57:15.368Z,995.87
2018-05-10T10:58:15.420Z,995.89
2018-05-10T10:59:15.430Z,995.86
2018-05-10T11:00:15.463Z,995.89
2018-05-10T11:01:15.486Z,995.88
2018-05-10T11:02:15.522Z,995.88
2018-05-10T11:03:15.549Z,995.88
2018-05-10T11:04:15.580Z,995.9
2018-05-10T11:05:15.611Z,995.88
2018-05-10T11:06:15.636Z,995.88
2018-05-10T11:07:15.664Z,995.87
2018-05-10T11:08:15.697Z,995.87
2018-05-10T11:09:15.776Z,995.87
2018-05-10T11:10:15.760Z,995.9
2018-05-10T11:11:15.789Z,995.88
2018-05-10T11:12:15.821Z,995.86
2018-05-10T11:13:15.860Z,995.87
2018-05-10T11:14:15.876Z,995.89
2018-05-10T11:15:15.910Z,995.91
2018-05-10T11:16:15.935Z,995.88
2018-05-10T11:17:15.966Z,995.91
2018-05-10T11:18:16.000Z,995.93
2018-05-10T11:19:16.031Z,995.9
2018-05-10T11:20:16.061Z,995.97
2018-05-10T11:21:16.085Z,995.89
2018-05-10T11:22:16.116Z,995.86
2018-05-10T11:23:16.148Z,995.92
2018-05-10T11:24:16.182Z,995.86
2018-05-10T11:25:16.208Z,995.9
2018-05-10T11:26:16.249Z,995.94
2018-05-10T11:27:16.367Z,995.96
2018-05-10T11:28:16.303Z,995.87
2018-05-10T11:29:16.334Z,995.88
2018-05-10T11:30:16.361Z,995.92
2018-05-10T11:31:16.402Z,995.87
2018-05-10T11:32:16.422Z,995.85
2018-05-10T11:33:16.521Z,995.87
2018-05-10T11:34:16.489Z,995.85
2018-05-10T11:35:16.518Z,995.82
2018-05-10T11:36:16.624Z,995.86
2018-05-10T11:37:16.582Z,995.86
2018-05-10T11:38:16.611Z,995.82
2018-05-10T11:39:16.647Z,995.85
2018-05-10T11:40:16.673Z,995.88
2018-05-10T11:41:16.699Z,995.86
2018-05-10T11:42:16.729Z,995.84
2018-05-10T11:43:16.775Z,995.8
2018-05-10T11:44:16.798Z,995.79
2018-05-10T11:45:16.828Z,995.85
2018-05-10T11:46:16.857Z,995.81
2018-05-10T11:47:16.899Z,995.87
2018-05-10T11:48:16.974Z,995.84
2018-05-10T11:49:16.959Z,995.84
2018-05-10T11:50:16.983Z,995.8
2018-05-10T11:51:17.010Z,995.87
2018-05-10T11:52:17.045Z,995.79
2018-05-10T11:53:17.071Z,995.79
2018-05-10T11:54:17.102Z,995.8
2018-05-10T11:55:17.140Z,995.77
2018-05-10T11:56:17.165Z,995.77
2018-05-10T11:57:17.272Z,995.76
2018-05-10T11:58:17.230Z,995.8
2018-05-10T11:59:17.261Z,995.86
2018-05-10T12:00:17.295Z,995.79
2018-05-10T12:01:17.327Z,995.8
2018-05-10T12:02:17.353Z,995.8
2018-05-10T12:03:17.387Z,995.76
2018-05-10T12:04:17.423Z,995.7
2018-05-10T12:05:17.449Z,995.74
2018-05-10T12:06:17.486Z,995.7
2018-05-10T12:07:17.518Z,995.72
2018-05-10T12:08:17.543Z,995.69
2018-05-10T12:09:17.575Z,995.74
2018-05-10T12:10:17.619Z,995.82
2018-05-10T12:11:17.644Z,995.75
2018-05-10T12:12:17.670Z,995.73
2018-05-10T12:13:17.703Z,995.73
2018-05-10T12:14:17.735Z,995.72
2018-05-10T12:15:17.775Z,995.75
2018-05-10T12:16:17.799Z,995.72
2018-05-10T12:17:17.835Z,995.72
2018-05-10T12:18:17.870Z,995.73
2018-05-10T12:19:17.957Z,995.77
2018-05-10T12:20:17.931Z,995.75
2018-05-10T12:21:17.963Z,995.74
2018-05-10T12:22:17.995Z,995.74
2018-05-10T12:23:18.027Z,995.73
2018-05-10T12:24:18.060Z,995.67
2018-05-10T12:25:18.087Z,995.68
2018-05-10T12:26:18.123Z,995.67
2018-05-10T12:27:18.149Z,995.65
2018-05-10T12:28:18.183Z,995.64
2018-05-10T12:29:18.216Z,995.64
2018-05-10T12:30:18.249Z,995.6
2018-05-10T12:31:18.284Z,995.62